Time;durP1;ratioP1;P1;durP2;ratioP2;P2;SDS_P1;SDS_P2;PMS_P1;PMS_P2;Temp;Humidity;BMP_temperature;BMP_pressure;BME280_temperature;BME280_humidity;BME280_pressure;Samples;Min_cycle;Max_cycle;Signal;HPM_P1;HPM_P2
2021/09/03 02:47:34;;;;;;;14.15;3.15;;;23.70;79.10;;;;;;5387161;22;87987;-68
2021/09/03 02:50:00;;;;;;;6.07;2.65;;;23.60;79.10;;;;;;4964037;28;87026;-69
2021/09/03 02:52:25;;;;;;;6.47;2.30;;;23.60;79.10;;;;;;4955515;28;88854;-67
2021/09/03 02:54:51;;;;;;;6.93;2.45;;;23.60;79.20;;;;;;4963385;28;88024;-68
2021/09/03 02:57:17;;;;;;;9.82;3.15;;;23.60;79.20;;;;;;4958834;28;86672;-67
2021/09/03 02:59:42;;;;;;;6.75;2.53;;;23.60;79.10;;;;;;4956357;28;87145;-67
2021/09/03 03:02:08;;;;;;;7.05;2.58;;;23.60;79.00;;;;;;4957454;28;88701;-67
2021/09/03 03:04:33;;;;;;;7.15;2.38;;;23.60;79.00;;;;;;4973457;28;89741;-67
2021/09/03 03:06:59;;;;;;;9.02;2.67;;;23.60;78.80;;;;;;4969524;28;87396;-67
2021/09/03 03:09:25;;;;;;;6.47;2.58;;;23.60;78.70;;;;;;4962387;28;88765;-67
2021/09/03 03:11:50;;;;;;;7.68;2.53;;;23.60;78.80;;;;;;4960369;28;87871;-69
2021/09/03 03:14:26;;;;;;;7.75;2.45;;;23.60;78.70;;;;;;4957332;28;87516;-72
2021/09/03 03:16:54;;;;;;;7.45;2.15;;;23.60;78.80;;;;;;4964334;28;86845;-71
2021/09/03 03:19:20;;;;;;;7.82;2.40;;;23.60;78.70;;;;;;4958646;28;86875;-70
2021/09/03 03:21:46;;;;;;;6.93;2.78;;;23.60;78.80;;;;;;4956482;28;90000;-68
2021/09/03 03:24:11;;;;;;;8.82;2.70;;;23.60;78.80;;;;;;4958485;28;87487;-69
2021/09/03 03:26:37;;;;;;;8.95;2.40;;;23.60;78.70;;;;;;4962700;28;88431;-67
2021/09/03 03:29:03;;;;;;;7.85;2.38;;;23.60;78.70;;;;;;4958573;28;87515;-69
2021/09/03 03:31:32;;;;;;;8.80;2.22;;;23.60;78.60;;;;;;4966093;28;88617;-71
2021/09/03 03:33:58;;;;;;;7.07;2.17;;;23.60;78.50;;;;;;4977929;28;88020;-71
2021/09/03 03:36:24;;;;;;;6.97;2.63;;;23.60;78.60;;;;;;4978267;28;87041;-71
2021/09/03 03:38:49;;;;;;;8.50;2.35;;;23.60;78.60;;;;;;4978716;28;87077;-70
2021/09/03 03:41:15;;;;;;;8.05;2.33;;;23.60;78.60;;;;;;4978603;28;88701;-67
2021/09/03 03:43:41;;;;;;;6.60;2.20;;;23.60;78.70;;;;;;4978982;28;86990;-68
2021/09/03 03:46:06;;;;;;;6.28;2.70;;;23.60;78.60;;;;;;4977288;28;87037;-68
2021/09/03 03:48:32;;;;;;;5.45;1.98;;;23.60;78.70;;;;;;4955953;28;87225;-68
2021/09/03 03:50:58;;;;;;;8.77;2.22;;;23.60;78.40;;;;;;4957499;28;89237;-69
2021/09/03 03:53:24;;;;;;;6.30;2.58;;;23.60;78.10;;;;;;4958616;28;87293;-68
2021/09/03 03:55:50;;;;;;;8.05;2.30;;;23.50;78.00;;;;;;4955964;28;87118;-68
2021/09/03 03:58:17;;;;;;;6.68;2.33;;;23.50;77.80;;;;;;4958620;28;87016;-68
2021/09/03 04:00:43;;;;;;;6.38;1.80;;;23.50;77.70;;;;;;4957884;28;88232;-68
2021/09/03 04:03:09;;;;;;;8.63;2.30;;;23.50;77.80;;;;;;4952664;28;87856;-68
2021/09/03 04:05:35;;;;;;;8.68;2.20;;;23.50;77.70;;;;;;4957928;28;86730;-68
2021/09/03 04:08:00;;;;;;;4.57;1.80;;;23.50;77.70;;;;;;4957880;28;86313;-68
2021/09/03 04:10:26;;;;;;;5.20;2.28;;;23.50;77.70;;;;;;4957997;28;87756;-68
2021/09/03 04:12:52;;;;;;;6.75;1.92;;;23.50;77.70;;;;;;4971567;28;89146;-68
2021/09/03 04:15:18;;;;;;;9.23;2.28;;;23.50;77.60;;;;;;4956508;28;88000;-68
2021/09/03 04:17:44;;;;;;;6.43;2.30;;;23.40;77.50;;;;;;4958153;28;86969;-68
2021/09/03 04:20:10;;;;;;;7.55;2.30;;;23.40;77.50;;;;;;4957182;28;87049;-68
2021/09/03 04:22:35;;;;;;;6.25;1.90;;;23.50;77.60;;;;;;4957396;28;87990;-68
2021/09/03 04:25:02;;;;;;;4.32;1.92;;;23.40;77.60;;;;;;4958032;28;87653;-68
2021/09/03 04:27:27;;;;;;;7.05;2.10;;;23.40;77.50;;;;;;4957616;28;87310;-68
2021/09/03 04:29:53;;;;;;;6.20;2.00;;;23.40;77.50;;;;;;4958090;28;87936;-68
2021/09/03 04:32:19;;;;;;;7.25;2.17;;;23.40;77.50;;;;;;4958522;28;87553;-68
2021/09/03 04:34:44;;;;;;;5.60;1.90;;;23.40;77.50;;;;;;4959222;28;87338;-68
2021/09/03 04:37:12;;;;;;;5.35;1.88;;;23.40;77.50;;;;;;4959213;28;86799;-68
2021/09/03 04:39:37;;;;;;;5.97;2.08;;;23.40;77.50;;;;;;4958892;28;89458;-69
2021/09/03 04:42:03;;;;;;;4.50;1.70;;;23.40;77.50;;;;;;4958983;28;87454;-68
2021/09/03 04:44:29;;;;;;;6.57;1.65;;;23.40;77.50;;;;;;4947285;28;87066;-68
2021/09/03 04:46:55;;;;;;;5.10;1.83;;;23.40;77.50;;;;;;4951299;28;87038;-68
2021/09/03 04:49:21;;;;;;;4.28;1.67;;;23.40;77.50;;;;;;4956554;28;87951;-68
2021/09/03 04:51:46;;;;;;;6.20;1.73;;;23.40;77.50;;;;;;4958664;28;87524;-69
2021/09/03 04:54:12;;;;;;;4.85;2.20;;;23.40;77.90;;;;;;4959051;28;87404;-68
2021/09/03 04:56:38;;;;;;;5.70;2.08;;;23.30;77.40;;;;;;4954312;28;86369;-69
2021/09/03 04:59:05;;;;;;;3.65;1.58;;;23.30;78.00;;;;;;4953705;28;88022;-68
2021/09/03 05:01:30;;;;;;;4.18;1.77;;;23.30;77.40;;;;;;4958845;28;87307;-69
2021/09/03 05:03:56;;;;;;;7.90;1.95;;;23.30;77.40;;;;;;4958381;28;87852;-68
2021/09/03 05:06:22;;;;;;;5.32;2.00;;;23.30;77.30;;;;;;4958515;28;87547;-67
2021/09/03 05:08:47;;;;;;;6.45;1.90;;;23.30;77.40;;;;;;4954493;28;88510;-66
2021/09/03 05:11:13;;;;;;;7.03;1.50;;;23.30;77.50;;;;;;4952543;28;86811;-66
2021/09/03 05:13:39;;;;;;;4.32;1.52;;;23.40;77.50;;;;;;4959008;28;87100;-67
2021/09/03 05:16:05;;;;;;;6.18;1.50;;;23.30;77.30;;;;;;4953802;28;87054;-68
2021/09/03 05:18:31;;;;;;;4.65;1.90;;;23.40;77.40;;;;;;4957668;28;87840;-67
2021/09/03 05:20:56;;;;;;;6.20;1.90;;;23.30;77.30;;;;;;4958614;28;86684;-67
2021/09/03 05:23:22;;;;;;;5.63;1.70;;;23.30;77.30;;;;;;4956937;28;87149;-67
2021/09/03 05:25:48;;;;;;;3.88;1.45;;;23.30;77.30;;;;;;4956405;28;87145;-67
2021/09/03 05:28:13;;;;;;;5.13;1.50;;;23.30;77.20;;;;;;4952055;28;88175;-67
2021/09/03 05:30:39;;;;;;;4.13;1.45;;;23.30;77.20;;;;;;4957048;28;87843;-67
2021/09/03 05:33:05;;;;;;;3.60;1.50;;;23.30;77.10;;;;;;4956736;28;86679;-67
2021/09/03 05:35:31;;;;;;;3.88;1.33;;;23.30;77.10;;;;;;4957381;28;87176;-69
2021/09/03 05:37:57;;;;;;;3.60;1.40;;;23.30;77.10;;;;;;4957584;28;87442;-67
2021/09/03 05:40:23;;;;;;;3.80;1.50;;;23.30;77.10;;;;;;4954723;28;86973;-67
2021/09/03 05:42:50;;;;;;;3.83;1.23;;;23.30;77.00;;;;;;4956222;28;87186;-67
2021/09/03 05:45:16;;;;;;;4.65;1.45;;;23.30;77.00;;;;;;4952334;28;86188;-67
2021/09/03 05:47:45;;;;;;;4.57;1.52;;;23.30;77.00;;;;;;4957390;28;86866;-67
2021/09/03 05:50:12;;;;;;;5.38;1.67;;;23.30;77.00;;;;;;4953908;28;87649;-67
2021/09/03 05:52:38;;;;;;;3.58;1.42;;;23.40;77.00;;;;;;4952429;28;88314;-67
2021/09/03 05:55:04;;;;;;;3.10;1.50;;;23.30;76.90;;;;;;4956094;28;87085;-67
2021/09/03 05:57:30;;;;;;;3.60;1.25;;;23.30;76.80;;;;;;4952958;28;87352;-67
2021/09/03 05:59:56;;;;;;;4.47;1.75;;;23.30;76.80;;;;;;4952806;28;87501;-67
2021/09/03 06:02:22;;;;;;;6.78;1.40;;;23.30;76.80;;;;;;4949088;28;86940;-68
2021/09/03 06:04:47;;;;;;;4.47;1.42;;;23.40;76.80;;;;;;4953979;28;86977;-67
2021/09/03 06:07:13;;;;;;;4.18;1.77;;;23.40;76.70;;;;;;4954283;28;87392;-67
2021/09/03 06:09:39;;;;;;;3.92;1.25;;;23.40;76.70;;;;;;4953825;28;87102;-68
2021/09/03 06:12:05;;;;;;;3.65;1.67;;;23.40;76.70;;;;;;4954438;28;87245;-67
2021/09/03 06:14:31;;;;;;;3.55;1.65;;;23.40;76.60;;;;;;4956549;28;87257;-67
2021/09/03 06:16:56;;;;;;;3.60;1.60;;;23.40;76.60;;;;;;4954162;28;89706;-67
2021/09/03 06:19:22;;;;;;;2.95;1.02;;;23.40;76.60;;;;;;4955529;28;87476;-67
2021/09/03 06:21:48;;;;;;;3.80;1.60;;;23.40;76.60;;;;;;4957322;28;86977;-67
2021/09/03 06:24:27;;;;;;;5.35;1.70;;;23.40;76.50;;;;;;4957275;28;87094;-67
2021/09/03 06:26:54;;;;;;;4.13;1.60;;;23.40;76.60;;;;;;4957020;28;87051;-67
2021/09/03 06:29:41;;;;;;;3.05;1.30;;;23.40;76.50;;;;;;4954752;28;87114;-69
2021/09/03 06:32:11;;;;;;;3.58;1.40;;;23.40;76.50;;;;;;4953036;28;87203;-67
2021/09/03 06:34:42;;;;;;;2.85;1.27;;;23.50;76.50;;;;;;4956792;28;86412;-67
2021/09/03 06:37:08;;;;;;;3.63;1.52;;;23.50;76.50;;;;;;4957235;28;87850;-67
2021/09/03 06:39:35;;;;;;;3.55;1.33;;;23.50;76.40;;;;;;4956529;28;87374;-67
2021/09/03 06:42:02;;;;;;;4.18;1.45;;;23.50;76.40;;;;;;4952008;28;87895;-67
2021/09/03 06:44:28;;;;;;;3.20;1.23;;;23.50;76.40;;;;;;4955854;28;86955;-67
2021/09/03 06:46:53;;;;;;;2.80;1.10;;;23.50;76.40;;;;;;4953500;28;88779;-67
2021/09/03 06:49:19;;;;;;;3.22;1.58;;;23.50;76.30;;;;;;4952521;28;87509;-68
2021/09/03 06:51:45;;;;;;;4.03;1.45;;;23.50;76.30;;;;;;4952966;28;87082;-67
2021/09/03 06:54:11;;;;;;;2.67;1.17;;;23.50;76.20;;;;;;4952647;28;86958;-67
2021/09/03 06:56:36;;;;;;;3.17;1.17;;;23.50;76.20;;;;;;4952962;28;87687;-70
2021/09/03 06:59:02;;;;;;;2.97;1.23;;;23.50;76.30;;;;;;4950619;28;87545;-67
2021/09/03 07:01:29;;;;;;;2.53;1.17;;;23.50;76.20;;;;;;4953443;28;87648;-68
2021/09/03 07:03:54;;;;;;;3.80;1.10;;;23.50;76.20;;;;;;4954320;28;86871;-67
2021/09/03 07:06:20;;;;;;;2.75;1.30;;;23.50;76.10;;;;;;4952207;28;87812;-67
2021/09/03 07:08:46;;;;;;;4.45;1.20;;;23.60;76.10;;;;;;4952836;28;89201;-67
2021/09/03 07:11:12;;;;;;;3.08;1.35;;;23.60;76.10;;;;;;4956550;28;87198;-67
2021/09/03 07:13:38;;;;;;;2.45;0.95;;;23.60;76.10;;;;;;4955123;28;86969;-68
2021/09/03 07:16:04;;;;;;;2.75;1.33;;;23.60;76.00;;;;;;4956010;28;86671;-67
2021/09/03 07:18:30;;;;;;;3.10;1.20;;;23.60;75.90;;;;;;4954760;28;89926;-67
2021/09/03 07:20:56;;;;;;;3.50;1.13;;;23.60;75.90;;;;;;4956163;28;87095;-67
2021/09/03 07:23:22;;;;;;;3.00;1.10;;;23.60;75.80;;;;;;4949299;28;86343;-68
2021/09/03 07:25:48;;;;;;;3.20;1.33;;;23.60;75.80;;;;;;4954621;28;87360;-68
2021/09/03 07:28:13;;;;;;;3.50;1.33;;;23.60;75.70;;;;;;4948293;28;87020;-67
2021/09/03 07:30:39;;;;;;;2.30;1.17;;;23.60;75.70;;;;;;4954868;28;88061;-68
2021/09/03 07:33:04;;;;;;;4.28;1.23;;;23.60;75.70;;;;;;4950916;28;87082;-67
2021/09/03 07:35:30;;;;;;;3.08;1.13;;;23.60;75.60;;;;;;4955879;28;88721;-67
2021/09/03 07:37:56;;;;;;;3.20;1.20;;;23.60;75.50;;;;;;4954315;28;87041;-67
2021/09/03 07:40:22;;;;;;;3.17;1.20;;;23.70;75.50;;;;;;4945983;28;86789;-67
2021/09/03 07:42:48;;;;;;;2.70;1.00;;;23.70;75.50;;;;;;4953654;28;88013;-68
2021/09/03 07:45:14;;;;;;;2.78;1.08;;;23.70;75.50;;;;;;4934298;28;88848;-66
2021/09/03 07:47:40;;;;;;;2.33;1.00;;;23.70;75.40;;;;;;4954600;28;86364;-66
2021/09/03 07:50:06;;;;;;;3.15;1.38;;;23.70;75.30;;;;;;4956167;28;86659;-66
2021/09/03 07:52:32;;;;;;;3.22;1.10;;;23.70;75.30;;;;;;4952973;28;87197;-69
2021/09/03 07:54:58;;;;;;;3.08;1.27;;;23.70;75.20;;;;;;4953753;28;88332;-70
2021/09/03 07:57:23;;;;;;;2.85;1.20;;;23.70;75.10;;;;;;4951516;28;88854;-66
2021/09/03 07:59:49;;;;;;;2.65;1.10;;;23.70;75.10;;;;;;4946929;28;87023;-65
2021/09/03 08:02:15;;;;;;;4.97;1.13;;;23.70;75.00;;;;;;4951948;28;87511;-65
2021/09/03 08:04:41;;;;;;;2.40;1.17;;;23.70;75.00;;;;;;4955672;28;87011;-66
2021/09/03 08:07:06;;;;;;;2.75;1.20;;;23.80;75.00;;;;;;4954912;28;87297;-65
2021/09/03 08:09:32;;;;;;;2.25;1.08;;;23.80;75.00;;;;;;4958625;28;87001;-66
2021/09/03 08:11:58;;;;;;;2.65;1.17;;;23.80;75.00;;;;;;4959613;28;86126;-66
2021/09/03 08:14:24;;;;;;;2.63;1.13;;;23.80;74.90;;;;;;4955810;28;87749;-66
2021/09/03 08:16:50;;;;;;;2.80;1.25;;;23.80;74.90;;;;;;4954558;28;87360;-66
2021/09/03 08:19:15;;;;;;;2.40;1.00;;;23.80;74.90;;;;;;4953699;28;87963;-66
2021/09/03 08:21:41;;;;;;;2.50;1.00;;;23.80;74.80;;;;;;4958395;28;87838;-66
2021/09/03 08:24:07;;;;;;;2.63;0.98;;;23.80;75.40;;;;;;4958464;28;87184;-66
2021/09/03 08:26:33;;;;;;;2.35;0.85;;;23.80;74.80;;;;;;4958016;28;87126;-65
2021/09/03 08:28:59;;;;;;;2.22;0.70;;;23.80;74.70;;;;;;4958720;28;87019;-66
2021/09/03 08:31:25;;;;;;;3.28;1.40;;;23.80;74.70;;;;;;4958346;28;88475;-67
2021/09/03 08:33:51;;;;;;;2.33;0.80;;;23.80;74.70;;;;;;4958906;28;87748;-66
2021/09/03 08:36:17;;;;;;;2.13;0.85;;;23.80;74.60;;;;;;4957481;28;88333;-66
2021/09/03 08:38:43;;;;;;;3.03;1.40;;;23.80;74.60;;;;;;4950245;28;86917;-66
2021/09/03 08:41:09;;;;;;;3.03;1.23;;;23.80;74.50;;;;;;4955330;28;87171;-65
2021/09/03 08:43:35;;;;;;;2.90;0.90;;;23.90;74.50;;;;;;4957761;28;88623;-65
2021/09/03 08:46:01;;;;;;;2.03;1.10;;;23.80;74.50;;;;;;4957305;28;88182;-68
2021/09/03 08:48:28;;;;;;;2.65;1.10;;;23.90;74.50;;;;;;4954542;28;87330;-70
2021/09/03 08:50:56;;;;;;;2.90;1.35;;;23.90;74.50;;;;;;4958489;28;86960;-66
2021/09/03 08:53:23;;;;;;;2.97;1.00;;;23.90;74.50;;;;;;4958511;28;88833;-66
2021/09/03 08:55:52;;;;;;;2.35;1.00;;;23.90;74.40;;;;;;4958178;28;87306;-66
2021/09/03 08:58:18;;;;;;;2.53;0.98;;;23.90;74.40;;;;;;4956351;28;87562;-66
2021/09/03 09:00:45;;;;;;;2.50;1.05;;;23.90;74.40;;;;;;4950858;28;86474;-66
2021/09/03 09:03:14;;;;;;;2.40;1.13;;;23.90;74.30;;;;;;4953548;28;88248;-67
2021/09/03 09:05:59;;;;;;;2.30;0.95;;;23.90;74.30;;;;;;4950709;28;87442;-67
2021/09/03 09:08:26;;;;;;;2.58;0.95;;;23.90;74.20;;;;;;4957564;28;87896;-68
2021/09/03 09:11:04;;;;;;;2.55;1.13;;;24.00;74.20;;;;;;4958484;28;87345;-69
2021/09/03 09:13:37;;;;;;;2.63;0.98;;;23.90;74.20;;;;;;4948496;28;87306;-68
2021/09/03 09:16:18;;;;;;;2.55;0.88;;;24.00;74.20;;;;;;4951470;28;87497;-67
2021/09/03 09:18:49;;;;;;;2.40;1.05;;;23.90;74.10;;;;;;4953929;28;87192;-67
2021/09/03 09:21:35;;;;;;;3.35;1.05;;;23.90;74.10;;;;;;4956160;28;87004;-67
2021/09/03 09:24:03;;;;;;;2.30;1.00;;;24.00;74.10;;;;;;4952194;28;87319;-67
2021/09/03 09:26:43;;;;;;;1.98;0.82;;;24.00;74.00;;;;;;4951472;28;88286;-67
2021/09/03 09:29:13;;;;;;;2.47;0.90;;;24.00;74.00;;;;;;4950155;28;87438;-67
2021/09/03 09:31:39;;;;;;;2.45;1.05;;;24.00;74.00;;;;;;4951418;28;87395;-67
2021/09/03 09:34:14;;;;;;;2.47;1.02;;;24.00;74.00;;;;;;4947589;28;89274;-67
2021/09/03 09:36:40;;;;;;;2.20;0.80;;;24.00;74.00;;;;;;4948596;28;88168;-67
2021/09/03 09:39:06;;;;;;;2.72;1.23;;;24.00;74.00;;;;;;4948952;28;87661;-66
2021/09/03 09:41:32;;;;;;;3.78;1.20;;;24.00;74.00;;;;;;4955771;28;87154;-66
2021/09/03 09:43:57;;;;;;;2.20;0.88;;;24.00;74.00;;;;;;4955306;28;87341;-67
2021/09/03 09:46:27;;;;;;;2.83;1.02;;;23.90;73.90;;;;;;4952261;28;87907;-68
2021/09/03 09:49:13;;;;;;;2.17;1.02;;;24.00;74.00;;;;;;4952811;28;87129;-69
2021/09/03 09:51:48;;;;;;;4.82;0.95;;;23.90;73.90;;;;;;4951035;28;86812;-69
2021/09/03 09:54:22;;;;;;;1.80;0.93;;;24.00;74.00;;;;;;4956464;28;87753;-70
2021/09/03 09:56:56;;;;;;;2.20;1.05;;;23.90;73.90;;;;;;4956661;28;87102;-70
2021/09/03 09:59:27;;;;;;;1.90;0.88;;;24.00;74.00;;;;;;4951278;28;88081;-69
2021/09/03 10:01:55;;;;;;;2.17;0.93;;;24.00;74.00;;;;;;4952639;28;86875;-68
2021/09/03 10:04:23;;;;;;;2.40;0.95;;;24.00;74.00;;;;;;4955993;28;88359;-68
2021/09/03 10:06:51;;;;;;;2.25;1.25;;;24.00;74.10;;;;;;4956267;28;87589;-69
2021/09/03 10:09:19;;;;;;;3.60;1.05;;;24.00;74.10;;;;;;4957248;28;87043;-68
2021/09/03 10:11:47;;;;;;;2.03;0.82;;;24.00;74.20;;;;;;4955933;28;87062;-68
2021/09/03 10:14:16;;;;;;;2.53;1.10;;;23.90;74.20;;;;;;4956970;28;86988;-69
2021/09/03 10:16:44;;;;;;;2.08;0.98;;;23.90;74.10;;;;;;4954271;28;87569;-68
2021/09/03 10:19:11;;;;;;;3.08;1.05;;;23.90;74.10;;;;;;4948701;28;87056;-68
2021/09/03 10:21:39;;;;;;;2.88;1.10;;;23.90;74.20;;;;;;4953439;28;87140;-68
2021/09/03 10:24:23;;;;;;;2.00;0.82;;;24.00;74.20;;;;;;4953377;28;88514;-68
2021/09/03 10:26:53;;;;;;;1.92;0.90;;;23.90;74.10;;;;;;4949501;28;89427;-68
2021/09/03 10:29:19;;;;;;;2.60;1.17;;;24.00;74.20;;;;;;4957178;28;87057;-68
2021/09/03 10:32:06;;;;;;;3.28;1.20;;;23.90;74.20;;;;;;4956311;28;87160;-69
2021/09/03 10:34:41;;;;;;;2.55;0.93;;;23.90;74.20;;;;;;4951566;28;87766;-68
2021/09/03 10:37:17;;;;;;;2.50;1.33;;;24.00;74.20;;;;;;4954825;28;88043;-68
2021/09/03 10:39:53;;;;;;;2.63;1.13;;;24.00;74.20;;;;;;4952538;28;87388;-68
2021/09/03 10:42:46;;;;;;;2.08;1.05;;;24.00;74.20;;;;;;4954898;28;86322;-68
2021/09/03 10:45:16;;;;;;;2.10;0.77;;;24.00;74.20;;;;;;4951626;28;87588;-68
2021/09/03 10:47:45;;;;;;;2.47;1.17;;;24.00;74.20;;;;;;4954964;28;88147;-68
2021/09/03 10:50:24;;;;;;;2.70;1.30;;;24.00;74.20;;;;;;4952506;28;88042;-68
2021/09/03 10:55:55;;;;;;;2.03;0.90;;;24.00;74.20;;;;;;4949962;28;88600;-69
2021/09/03 10:58:47;;;;;;;2.72;1.08;;;24.00;74.30;;;;;;4947378;28;88062;-69
2021/09/03 11:01:15;;;;;;;2.13;0.73;;;24.00;74.30;;;;;;4948451;28;87178;-69
2021/09/03 11:03:45;;;;;;;1.90;0.82;;;24.00;74.40;;;;;;4944649;28;88065;-69
2021/09/03 11:06:23;;;;;;;3.08;1.10;;;24.00;74.20;;;;;;4951513;28;88269;-69
2021/09/03 11:09:00;;;;;;;1.98;0.60;;;24.00;74.30;;;;;;4946834;28;86434;-69
2021/09/03 11:11:35;;;;;;;2.08;0.90;;;24.00;74.30;;;;;;4952465;28;87058;-70
2021/09/03 11:14:06;;;;;;;2.10;1.02;;;24.10;74.30;;;;;;4948569;28;86954;-68
2021/09/03 11:16:31;;;;;;;1.95;0.70;;;24.00;74.30;;;;;;4949489;28;88984;-67
2021/09/03 11:19:05;;;;;;;1.98;0.80;;;24.00;74.30;;;;;;4951617;28;87769;-67
2021/09/03 11:21:42;;;;;;;2.58;1.13;;;24.10;74.30;;;;;;4953265;28;87232;-67
2021/09/03 11:24:08;;;;;;;2.17;0.75;;;24.10;74.30;;;;;;4954301;28;86902;-67
2021/09/03 11:26:36;;;;;;;1.77;0.77;;;24.10;74.30;;;;;;4955244;28;87045;-68
2021/09/03 11:29:04;;;;;;;1.92;0.80;;;24.10;74.30;;;;;;4948636;28;88387;-68
2021/09/03 11:31:34;;;;;;;1.88;0.88;;;24.10;74.30;;;;;;4940673;28;86938;-69
2021/09/03 11:34:05;;;;;;;;;;;24.10;74.30;;;;;;4955242;28;86269;-69
2021/09/03 11:36:47;;;;;;;3.40;1.05;;;24.10;74.30;;;;;;4954230;28;87041;-69
2021/09/03 11:39:16;;;;;;;2.25;1.10;;;24.10;74.30;;;;;;4953285;28;86572;-68
2021/09/03 11:41:49;;;;;;;2.88;1.10;;;24.10;74.30;;;;;;4954051;28;88330;-68
2021/09/03 11:44:16;;;;;;;1.85;0.80;;;24.10;74.90;;;;;;4957808;28;87156;-69
2021/09/03 11:46:42;;;;;;;2.05;0.73;;;24.20;74.30;;;;;;4959208;28;87346;-68
2021/09/03 11:49:09;;;;;;;2.55;1.02;;;24.10;74.30;;;;;;4958259;28;86846;-68
2021/09/03 11:51:34;;;;;;;3.42;1.10;;;24.20;74.40;;;;;;4955704;28;87435;-68
2021/09/03 11:54:01;;;;;;;1.95;0.75;;;24.20;74.50;;;;;;4957721;28;86927;-70
2021/09/03 11:56:26;;;;;;;1.85;1.00;;;24.10;74.30;;;;;;4955340;28;88260;-69
2021/09/03 11:58:52;;;;;;;2.00;0.68;;;24.20;74.40;;;;;;4960368;28;87141;-69
2021/09/03 12:01:21;;;;;;;2.03;0.73;;;24.20;74.40;;;;;;4948590;28;87014;-69
2021/09/03 12:03:48;;;;;;;2.42;1.05;;;24.20;74.40;;;;;;4958445;28;86968;-70
2021/09/03 12:06:18;;;;;;;1.80;0.60;;;24.20;74.40;;;;;;4953744;28;88719;-70
2021/09/03 12:08:45;;;;;;;2.88;0.85;;;24.20;74.40;;;;;;4955740;28;88273;-70
2021/09/03 12:11:20;;;;;;;2.13;0.85;;;24.30;74.50;;;;;;4953595;28;87064;-70
2021/09/03 12:13:56;;;;;;;2.20;0.73;;;24.30;74.40;;;;;;4957267;28;87159;-70
2021/09/03 12:16:24;;;;;;;1.65;0.73;;;24.30;74.50;;;;;;4954757;28;87390;-70
2021/09/03 12:18:56;;;;;;;2.17;0.73;;;24.30;74.40;;;;;;4953397;28;86964;-70
2021/09/03 12:21:25;;;;;;;2.33;1.08;;;24.30;74.40;;;;;;4956305;28;87650;-70
2021/09/03 12:23:53;;;;;;;2.10;0.73;;;24.30;74.40;;;;;;4957459;28;86570;-70
2021/09/03 12:26:25;;;;;;;2.03;0.93;;;24.30;74.50;;;;;;4956514;28;88646;-70
2021/09/03 12:28:53;;;;;;;3.45;0.90;;;24.30;74.50;;;;;;4956721;28;87961;-70
2021/09/03 12:31:24;;;;;;;1.70;0.80;;;24.30;74.50;;;;;;4956551;28;87813;-70
2021/09/03 12:33:58;;;;;;;2.10;0.70;;;24.30;74.40;;;;;;4954834;28;87047;-70
2021/09/03 12:36:30;;;;;;;2.75;0.90;;;24.40;74.50;;;;;;4948191;28;88222;-70
2021/09/03 12:39:00;;;;;;;1.80;0.90;;;24.40;74.50;;;;;;4956303;28;87661;-70
2021/09/03 12:41:31;;;;;;;2.97;1.00;;;24.40;74.50;;;;;;4956411;28;87012;-70
2021/09/03 12:44:04;;;;;;;2.05;0.88;;;24.40;74.50;;;;;;4955607;28;88304;-70
2021/09/03 12:46:50;;;;;;;2.28;0.85;;;24.40;74.50;;;;;;4951046;28;87754;-70
2021/09/03 12:49:26;;;;;;;2.67;0.82;;;24.40;74.50;;;;;;4956500;28;86798;-70
2021/09/03 12:51:53;;;;;;;1.38;0.73;;;24.40;74.50;;;;;;4956874;28;87193;-70
2021/09/03 12:54:22;;;;;;;1.90;1.02;;;24.40;74.40;;;;;;4952923;28;86388;-70
2021/09/03 12:56:47;;;;;;;3.08;0.60;;;24.40;75.10;;;;;;4956291;28;87852;-70
2021/09/03 12:59:13;;;;;;;1.73;0.77;;;24.40;74.40;;;;;;4947306;28;87990;-70
2021/09/03 13:01:39;;;;;;;1.80;0.70;;;24.40;74.40;;;;;;4956303;28;87094;-69
2021/09/03 13:04:19;;;;;;;2.25;0.80;;;24.40;74.40;;;;;;4955307;28;87111;-70
2021/09/03 13:06:47;;;;;;;2.08;0.93;;;24.50;74.50;;;;;;4956064;28;87327;-70
2021/09/03 13:09:13;;;;;;;1.73;0.82;;;24.40;74.40;;;;;;4956519;28;88151;-70
2021/09/03 13:11:39;;;;;;;1.73;0.80;;;24.50;74.50;;;;;;4953855;28;87028;-70
2021/09/03 13:14:05;;;;;;;1.52;0.82;;;24.50;74.50;;;;;;4953641;28;86337;-70
2021/09/03 13:16:33;;;;;;;1.67;0.63;;;24.50;74.50;;;;;;4955457;28;88180;-70
2021/09/03 13:19:01;;;;;;;1.52;0.52;;;24.50;74.50;;;;;;4955596;28;87242;-70
2021/09/03 13:21:26;;;;;;;1.67;0.75;;;24.50;74.50;;;;;;4954417;28;87906;-70
2021/09/03 13:23:52;;;;;;;1.73;0.43;;;24.50;74.50;;;;;;4952100;28;87042;-70
2021/09/03 13:26:18;;;;;;;1.83;1.25;;;24.50;74.50;;;;;;4957478;28;88299;-70
2021/09/03 13:28:45;;;;;;;2.03;0.75;;;24.60;74.60;;;;;;4956391;28;87903;-70
2021/09/03 13:31:11;;;;;;;1.73;0.70;;;24.60;74.60;;;;;;4957132;28;87510;-70
2021/09/03 13:33:37;;;;;;;2.55;0.77;;;24.50;74.50;;;;;;4955955;28;87041;-70
2021/09/03 13:36:03;;;;;;;2.03;0.82;;;24.60;74.50;;;;;;4955373;28;87405;-70
2021/09/03 13:38:29;;;;;;;2.35;1.45;;;24.60;74.60;;;;;;4957522;28;87419;-70
2021/09/03 13:40:55;;;;;;;1.55;0.77;;;24.60;74.50;;;;;;4956071;28;87059;-70
2021/09/03 13:43:22;;;;;;;2.15;0.80;;;24.60;74.50;;;;;;4956867;28;87315;-70
2021/09/03 13:45:48;;;;;;;1.45;0.70;;;24.60;74.60;;;;;;4945981;28;88164;-70
2021/09/03 13:48:13;;;;;;;2.00;0.80;;;24.60;74.50;;;;;;4956219;28;88083;-70
2021/09/03 13:50:39;;;;;;;1.50;0.90;;;24.60;74.50;;;;;;4955719;28;87141;-70
2021/09/03 13:53:08;;;;;;;2.03;0.70;;;24.60;74.50;;;;;;4956300;28;88064;-70
2021/09/03 13:55:34;;;;;;;2.13;0.80;;;24.60;74.50;;;;;;4951068;28;88563;-70
2021/09/03 13:58:01;;;;;;;2.05;0.93;;;24.60;74.50;;;;;;4957115;28;87349;-70
2021/09/03 14:00:28;;;;;;;1.58;0.80;;;24.60;74.50;;;;;;4947051;28;86896;-71
2021/09/03 14:02:54;;;;;;;1.58;0.52;;;24.60;74.50;;;;;;4954346;28;86349;-70
2021/09/03 14:05:20;;;;;;;1.70;0.68;;;24.60;74.50;;;;;;4950505;28;87262;-71
2021/09/03 14:07:46;;;;;;;1.98;0.80;;;24.70;74.60;;;;;;4949922;28;87058;-70
2021/09/03 14:10:12;;;;;;;1.55;0.90;;;24.70;74.60;;;;;;4951024;28;87528;-69
2021/09/03 14:12:38;;;;;;;1.45;0.73;;;24.70;74.50;;;;;;4949351;28;87219;-68
2021/09/03 14:15:04;;;;;;;1.95;0.93;;;24.70;74.50;;;;;;4953803;28;87282;-68
2021/09/03 14:17:30;;;;;;;1.48;0.85;;;24.70;74.60;;;;;;4950127;28;87078;-68
2021/09/03 14:19:56;;;;;;;1.88;0.65;;;24.70;74.60;;;;;;4952182;28;86919;-68
2021/09/03 14:22:22;;;;;;;1.88;0.73;;;24.70;74.80;;;;;;4955963;28;86483;-69
2021/09/03 14:24:48;;;;;;;3.63;0.82;;;24.70;75.00;;;;;;4953081;28;88807;-69
2021/09/03 14:27:13;;;;;;;6.47;0.73;;;24.80;75.00;;;;;;4955386;28;87384;-69
2021/09/03 14:29:39;;;;;;;3.50;0.65;;;24.80;75.00;;;;;;4955276;28;86939;-69
2021/09/03 14:32:06;;;;;;;4.05;0.98;;;24.80;75.10;;;;;;4955354;28;86947;-69
2021/09/03 14:34:32;;;;;;;2.10;0.73;;;24.80;75.30;;;;;;4952488;28;91652;-67
2021/09/03 14:36:57;;;;;;;2.28;0.80;;;24.80;75.30;;;;;;4949460;28;88451;-68
2021/09/03 14:39:23;;;;;;;5.03;0.85;;;24.90;75.30;;;;;;4949375;28;86885;-69
2021/09/03 14:41:49;;;;;;;3.30;0.85;;;24.90;75.50;;;;;;4952692;28;87147;-68
2021/09/03 14:44:15;;;;;;;6.60;0.98;;;24.90;75.40;;;;;;4953773;28;87604;-68
2021/09/03 14:46:41;;;;;;;5.75;1.23;;;24.90;75.90;;;;;;4948632;28;87746;-69
2021/09/03 14:49:08;;;;;;;6.10;0.90;;;24.90;76.00;;;;;;4951061;28;86916;-68
2021/09/03 14:51:34;;;;;;;5.28;0.82;;;24.90;76.10;;;;;;4954608;28;86113;-68
2021/09/03 14:54:00;;;;;;;2.80;0.90;;;24.90;76.00;;;;;;4954702;28;88338;-69
2021/09/03 14:56:26;;;;;;;2.00;0.60;;;24.90;75.80;;;;;;4953633;28;87130;-69
2021/09/03 14:58:52;;;;;;;2.33;0.73;;;25.00;76.10;;;;;;4954848;28;87976;-68
2021/09/03 15:01:18;;;;;;;4.00;0.90;;;24.90;76.10;;;;;;4954969;28;87036;-68
2021/09/03 15:03:44;;;;;;;3.55;0.60;;;25.00;76.10;;;;;;4953979;28;87032;-69
2021/09/03 15:06:10;;;;;;;2.55;0.68;;;25.00;76.00;;;;;;4949538;28;86983;-69
2021/09/03 15:08:36;;;;;;;2.03;0.75;;;25.00;76.10;;;;;;4955532;28;87286;-69
2021/09/03 15:11:03;;;;;;;3.15;1.15;;;25.00;75.90;;;;;;4954326;28;86876;-69
2021/09/03 15:13:28;;;;;;;5.25;0.90;;;25.00;75.80;;;;;;4949504;28;87786;-69
2021/09/03 15:15:58;;;;;;;4.95;1.00;;;25.00;75.60;;;;;;4946493;28;86466;-69
2021/09/03 15:18:26;;;;;;;3.30;0.90;;;25.00;75.40;;;;;;4949952;28;87167;-68
2021/09/03 15:20:53;;;;;;;3.78;2.10;;;25.00;75.30;;;;;;4958670;28;88774;-68
2021/09/03 15:23:19;;;;;;;9.30;2.78;;;24.90;70.10;;;;;;4951763;28;87961;-68
2021/09/03 15:25:45;;;;;;;4.93;2.47;;;24.80;70.80;;;;;;4955649;28;87583;-68
2021/09/03 15:28:10;;;;;;;9.43;2.78;;;24.80;68.50;;;;;;4953165;28;87383;-69
2021/09/03 15:30:37;;;;;;;9.27;3.00;;;24.70;68.80;;;;;;4956844;28;87148;-68
2021/09/03 15:33:04;;;;;;;11.50;2.40;;;24.60;66.70;;;;;;4957921;28;87030;-69
2021/09/03 15:35:30;;;;;;;7.38;2.83;;;24.60;68.60;;;;;;4958071;28;88041;-69
2021/09/03 15:37:56;;;;;;;9.98;2.65;;;24.60;68.50;;;;;;4951648;28;87116;-69
2021/09/03 15:40:22;;;;;;;4.40;2.47;;;24.60;69.00;;;;;;4957261;28;87346;-70